sensor_id;sensor_type;location;lat;lon;timestamp;P1;durP1;ratioP1;P2;durP2;ratioP2
20802;SDS011;10562;-33.856;151.182;2022-12-24T00:01:26;8.57;;;2.97;;
20802;SDS011;10562;-33.856;151.182;2022-12-24T00:03:57;8.65;;;3.10;;
20802;SDS011;10562;-33.856;151.182;2022-12-24T00:06:28;6.35;;;3.13;;
20802;SDS011;10562;-33.856;151.182;2022-12-24T00:09:01;8.40;;;3.28;;
20802;SDS011;10562;-33.856;151.182;2022-12-24T00:11:31;11.35;;;3.55;;
20802;SDS011;10562;-33.856;151.182;2022-12-24T00:14:02;7.25;;;3.13;;
20802;SDS011;10562;-33.856;151.182;2022-12-24T00:16:33;6.50;;;2.95;;
20802;SDS011;10562;-33.856;151.182;2022-12-24T00:19:04;6.90;;;3.40;;
20802;SDS011;10562;-33.856;151.182;2022-12-24T00:21:34;6.28;;;2.75;;
20802;SDS011;10562;-33.856;151.182;2022-12-24T00:24:07;5.32;;;3.10;;
20802;SDS011;10562;-33.856;151.182;2022-12-24T00:26:38;5.63;;;3.00;;
20802;SDS011;10562;-33.856;151.182;2022-12-24T00:29:12;10.35;;;3.28;;
20802;SDS011;10562;-33.856;151.182;2022-12-24T00:31:43;7.60;;;3.20;;
20802;SDS011;10562;-33.856;151.182;2022-12-24T00:34:14;6.80;;;3.30;;
20802;SDS011;10562;-33.856;151.182;2022-12-24T00:36:44;8.27;;;3.20;;
20802;SDS011;10562;-33.856;151.182;2022-12-24T00:39:17;6.07;;;2.80;;
20802;SDS011;10562;-33.856;151.182;2022-12-24T00:41:48;4.13;;;2.78;;
20802;SDS011;10562;-33.856;151.182;2022-12-24T00:44:19;5.90;;;2.83;;
20802;SDS011;10562;-33.856;151.182;2022-12-24T00:46:49;7.50;;;2.88;;
20802;SDS011;10562;-33.856;151.182;2022-12-24T00:49:20;6.30;;;3.13;;
20802;SDS011;10562;-33.856;151.182;2022-12-24T00:51:51;9.40;;;3.03;;
20802;SDS011;10562;-33.856;151.182;2022-12-24T00:54:24;7.53;;;2.80;;
20802;SDS011;10562;-33.856;151.182;2022-12-24T00:56:54;7.85;;;2.95;;
20802;SDS011;10562;-33.856;151.182;2022-12-24T00:59:25;6.22;;;2.92;;
20802;SDS011;10562;-33.856;151.182;2022-12-24T01:01:56;5.65;;;2.80;;
20802;SDS011;10562;-33.856;151.182;2022-12-24T01:04:27;6.68;;;3.00;;
20802;SDS011;10562;-33.856;151.182;2022-12-24T01:07:14;7.57;;;2.65;;
20802;SDS011;10562;-33.856;151.182;2022-12-24T01:09:47;6.88;;;2.85;;
20802;SDS011;10562;-33.856;151.182;2022-12-24T01:12:18;8.65;;;3.20;;
20802;SDS011;10562;-33.856;151.182;2022-12-24T01:14:49;7.10;;;2.65;;
20802;SDS011;10562;-33.856;151.182;2022-12-24T01:17:19;4.32;;;2.47;;
20802;SDS011;10562;-33.856;151.182;2022-12-24T01:19:50;9.77;;;2.88;;
20802;SDS011;10562;-33.856;151.182;2022-12-24T01:22:21;6.50;;;3.03;;
20802;SDS011;10562;-33.856;151.182;2022-12-24T01:24:54;3.83;;;2.85;;
20802;SDS011;10562;-33.856;151.182;2022-12-24T01:27:25;7.38;;;2.65;;
20802;SDS011;10562;-33.856;151.182;2022-12-24T01:29:55;5.82;;;2.97;;
20802;SDS011;10562;-33.856;151.182;2022-12-24T01:32:26;4.88;;;2.75;;
20802;SDS011;10562;-33.856;151.182;2022-12-24T01:34:57;5.88;;;3.00;;
20802;SDS011;10562;-33.856;151.182;2022-12-24T01:37:28;6.55;;;3.15;;
20802;SDS011;10562;-33.856;151.182;2022-12-24T01:40:00;5.70;;;3.00;;
20802;SDS011;10562;-33.856;151.182;2022-12-24T01:42:46;4.07;;;2.80;;
20802;SDS011;10562;-33.856;151.182;2022-12-24T01:45:43;10.27;;;3.40;;
20802;SDS011;10562;-33.856;151.182;2022-12-24T01:48:20;6.60;;;3.00;;
20802;SDS011;10562;-33.856;151.182;2022-12-24T01:50:59;7.47;;;3.17;;
20802;SDS011;10562;-33.856;151.182;2022-12-24T01:53:34;5.25;;;2.80;;
20802;SDS011;10562;-33.856;151.182;2022-12-24T01:56:09;5.55;;;2.90;;
20802;SDS011;10562;-33.856;151.182;2022-12-24T01:58:42;3.92;;;2.90;;
20802;SDS011;10562;-33.856;151.182;2022-12-24T02:01:18;6.95;;;2.78;;
20802;SDS011;10562;-33.856;151.182;2022-12-24T02:03:50;4.90;;;2.83;;
20802;SDS011;10562;-33.856;151.182;2022-12-24T02:06:21;5.28;;;2.70;;
20802;SDS011;10562;-33.856;151.182;2022-12-24T02:08:53;6.10;;;2.90;;
20802;SDS011;10562;-33.856;151.182;2022-12-24T02:11:26;5.55;;;3.05;;
20802;SDS011;10562;-33.856;151.182;2022-12-24T02:13:58;4.93;;;3.00;;
20802;SDS011;10562;-33.856;151.182;2022-12-24T02:16:33;5.38;;;2.80;;
20802;SDS011;10562;-33.856;151.182;2022-12-24T02:19:14;4.18;;;2.60;;
20802;SDS011;10562;-33.856;151.182;2022-12-24T02:22:24;5.47;;;2.80;;
20802;SDS011;10562;-33.856;151.182;2022-12-24T02:25:14;5.70;;;2.95;;
20802;SDS011;10562;-33.856;151.182;2022-12-24T02:28:06;6.13;;;2.70;;
20802;SDS011;10562;-33.856;151.182;2022-12-24T02:30:48;6.20;;;3.13;;
20802;SDS011;10562;-33.856;151.182;2022-12-24T02:33:24;7.43;;;2.80;;
20802;SDS011;10562;-33.856;151.182;2022-12-24T02:36:01;4.10;;;2.60;;
20802;SDS011;10562;-33.856;151.182;2022-12-24T02:38:38;4.90;;;2.50;;
20802;SDS011;10562;-33.856;151.182;2022-12-24T02:41:15;5.45;;;2.50;;
20802;SDS011;10562;-33.856;151.182;2022-12-24T02:43:50;3.88;;;2.58;;
20802;SDS011;10562;-33.856;151.182;2022-12-24T02:46:25;4.97;;;2.20;;
20802;SDS011;10562;-33.856;151.182;2022-12-24T02:48:59;5.57;;;2.50;;
20802;SDS011;10562;-33.856;151.182;2022-12-24T02:51:30;6.18;;;2.75;;
20802;SDS011;10562;-33.856;151.182;2022-12-24T02:54:01;6.10;;;2.75;;
20802;SDS011;10562;-33.856;151.182;2022-12-24T02:56:37;3.92;;;2.88;;
20802;SDS011;10562;-33.856;151.182;2022-12-24T02:59:32;5.40;;;2.80;;
20802;SDS011;10562;-33.856;151.182;2022-12-24T03:02:16;3.97;;;2.55;;
20802;SDS011;10562;-33.856;151.182;2022-12-24T03:04:55;3.97;;;2.70;;
20802;SDS011;10562;-33.856;151.182;2022-12-24T03:07:31;7.68;;;3.10;;
20802;SDS011;10562;-33.856;151.182;2022-12-24T03:10:10;3.67;;;2.67;;
20802;SDS011;10562;-33.856;151.182;2022-12-24T03:12:47;4.25;;;2.60;;
20802;SDS011;10562;-33.856;151.182;2022-12-24T03:15:22;5.55;;;2.55;;
20802;SDS011;10562;-33.856;151.182;2022-12-24T03:17:56;5.22;;;2.50;;
20802;SDS011;10562;-33.856;151.182;2022-12-24T03:20:30;3.83;;;2.40;;
20802;SDS011;10562;-33.856;151.182;2022-12-24T03:23:03;6.38;;;2.72;;
20802;SDS011;10562;-33.856;151.182;2022-12-24T03:25:34;3.03;;;2.30;;
20802;SDS011;10562;-33.856;151.182;2022-12-24T03:28:09;10.90;;;2.50;;
20802;SDS011;10562;-33.856;151.182;2022-12-24T03:30:45;4.10;;;2.40;;
20802;SDS011;10562;-33.856;151.182;2022-12-24T03:33:18;5.68;;;2.85;;
20802;SDS011;10562;-33.856;151.182;2022-12-24T03:35:49;4.88;;;2.50;;
20802;SDS011;10562;-33.856;151.182;2022-12-24T03:38:20;3.75;;;2.30;;
20802;SDS011;10562;-33.856;151.182;2022-12-24T03:40:51;6.55;;;2.33;;
20802;SDS011;10562;-33.856;151.182;2022-12-24T03:43:21;4.65;;;2.30;;
20802;SDS011;10562;-33.856;151.182;2022-12-24T03:45:52;5.30;;;2.15;;
20802;SDS011;10562;-33.856;151.182;2022-12-24T03:48:25;4.75;;;2.40;;
20802;SDS011;10562;-33.856;151.182;2022-12-24T03:50:56;3.70;;;2.10;;
20802;SDS011;10562;-33.856;151.182;2022-12-24T03:53:26;4.18;;;2.17;;
20802;SDS011;10562;-33.856;151.182;2022-12-24T03:55:57;3.38;;;2.20;;
20802;SDS011;10562;-33.856;151.182;2022-12-24T03:58:28;4.13;;;2.35;;
20802;SDS011;10562;-33.856;151.182;2022-12-24T04:00:59;3.08;;;1.80;;
20802;SDS011;10562;-33.856;151.182;2022-12-24T04:03:31;3.58;;;2.13;;
20802;SDS011;10562;-33.856;151.182;2022-12-24T04:06:02;6.28;;;2.13;;
20802;SDS011;10562;-33.856;151.182;2022-12-24T04:08:34;4.57;;;2.13;;
20802;SDS011;10562;-33.856;151.182;2022-12-24T04:11:06;4.82;;;2.10;;
20802;SDS011;10562;-33.856;151.182;2022-12-24T04:13:38;4.78;;;2.10;;
20802;SDS011;10562;-33.856;151.182;2022-12-24T04:16:10;4.95;;;2.30;;
20802;SDS011;10562;-33.856;151.182;2022-12-24T04:18:43;3.42;;;2.00;;
20802;SDS011;10562;-33.856;151.182;2022-12-24T04:21:14;4.40;;;2.10;;
20802;SDS011;10562;-33.856;151.182;2022-12-24T04:23:45;3.25;;;2.05;;
20802;SDS011;10562;-33.856;151.182;2022-12-24T04:26:16;2.15;;;1.65;;
20802;SDS011;10562;-33.856;151.182;2022-12-24T04:28:47;4.05;;;1.80;;
20802;SDS011;10562;-33.856;151.182;2022-12-24T04:31:17;2.90;;;1.80;;
20802;SDS011;10562;-33.856;151.182;2022-12-24T04:33:50;4.47;;;1.95;;
20802;SDS011;10562;-33.856;151.182;2022-12-24T04:36:21;4.13;;;2.00;;
20802;SDS011;10562;-33.856;151.182;2022-12-24T04:38:52;3.20;;;1.75;;
20802;SDS011;10562;-33.856;151.182;2022-12-24T04:41:23;4.95;;;1.98;;
20802;SDS011;10562;-33.856;151.182;2022-12-24T04:43:53;3.05;;;1.83;;
20802;SDS011;10562;-33.856;151.182;2022-12-24T04:46:25;3.85;;;1.80;;
20802;SDS011;10562;-33.856;151.182;2022-12-24T04:48:59;3.22;;;1.70;;
20802;SDS011;10562;-33.856;151.182;2022-12-24T04:51:30;3.95;;;1.65;;
20802;SDS011;10562;-33.856;151.182;2022-12-24T04:54:01;3.72;;;1.80;;
20802;SDS011;10562;-33.856;151.182;2022-12-24T04:56:32;2.80;;;1.70;;
20802;SDS011;10562;-33.856;151.182;2022-12-24T04:59:02;3.10;;;1.50;;
20802;SDS011;10562;-33.856;151.182;2022-12-24T05:01:33;3.25;;;1.58;;
20802;SDS011;10562;-33.856;151.182;2022-12-24T05:04:06;5.55;;;1.60;;
20802;SDS011;10562;-33.856;151.182;2022-12-24T05:06:38;4.57;;;1.70;;
20802;SDS011;10562;-33.856;151.182;2022-12-24T05:09:09;3.55;;;1.50;;
20802;SDS011;10562;-33.856;151.182;2022-12-24T05:11:39;3.78;;;1.50;;
20802;SDS011;10562;-33.856;151.182;2022-12-24T05:14:10;1.95;;;1.33;;
20802;SDS011;10562;-33.856;151.182;2022-12-24T05:16:41;4.80;;;1.60;;
20802;SDS011;10562;-33.856;151.182;2022-12-24T05:19:14;4.60;;;1.45;;
20802;SDS011;10562;-33.856;151.182;2022-12-24T05:21:45;2.80;;;1.55;;
20802;SDS011;10562;-33.856;151.182;2022-12-24T05:24:36;1.98;;;1.30;;
20802;SDS011;10562;-33.856;151.182;2022-12-24T05:27:22;2.67;;;1.45;;
20802;SDS011;10562;-33.856;151.182;2022-12-24T05:29:53;3.50;;;1.40;;
20802;SDS011;10562;-33.856;151.182;2022-12-24T05:32:24;3.72;;;1.20;;
20802;SDS011;10562;-33.856;151.182;2022-12-24T05:34:57;2.28;;;1.30;;
20802;SDS011;10562;-33.856;151.182;2022-12-24T05:37:28;2.60;;;1.50;;
20802;SDS011;10562;-33.856;151.182;2022-12-24T05:39:59;3.13;;;1.50;;
20802;SDS011;10562;-33.856;151.182;2022-12-24T05:42:30;2.53;;;1.48;;
20802;SDS011;10562;-33.856;151.182;2022-12-24T05:45:00;4.97;;;1.60;;
20802;SDS011;10562;-33.856;151.182;2022-12-24T05:47:31;2.30;;;1.40;;
20802;SDS011;10562;-33.856;151.182;2022-12-24T05:50:04;1.65;;;1.15;;
20802;SDS011;10562;-33.856;151.182;2022-12-24T05:52:35;2.75;;;1.52;;
20802;SDS011;10562;-33.856;151.182;2022-12-24T05:55:06;1.98;;;1.38;;
20802;SDS011;10562;-33.856;151.182;2022-12-24T05:57:38;2.60;;;1.58;;
20802;SDS011;10562;-33.856;151.182;2022-12-24T06:00:09;3.20;;;1.40;;
20802;SDS011;10562;-33.856;151.182;2022-12-24T06:02:40;3.85;;;1.30;;
20802;SDS011;10562;-33.856;151.182;2022-12-24T06:05:13;3.33;;;1.38;;
20802;SDS011;10562;-33.856;151.182;2022-12-24T06:07:44;3.58;;;1.25;;
20802;SDS011;10562;-33.856;151.182;2022-12-24T06:10:15;1.30;;;1.20;;
20802;SDS011;10562;-33.856;151.182;2022-12-24T06:12:46;2.10;;;1.27;;
20802;SDS011;10562;-33.856;151.182;2022-12-24T06:15:17;2.10;;;1.33;;
20802;SDS011;10562;-33.856;151.182;2022-12-24T06:17:47;1.67;;;1.20;;
20802;SDS011;10562;-33.856;151.182;2022-12-24T06:20:20;1.58;;;1.35;;
20802;SDS011;10562;-33.856;151.182;2022-12-24T06:22:51;1.40;;;1.20;;
20802;SDS011;10562;-33.856;151.182;2022-12-24T06:25:22;2.63;;;1.23;;
20802;SDS011;10562;-33.856;151.182;2022-12-24T06:27:52;1.45;;;1.10;;
20802;SDS011;10562;-33.856;151.182;2022-12-24T06:30:23;1.92;;;1.10;;
20802;SDS011;10562;-33.856;151.182;2022-12-24T06:32:54;3.05;;;1.10;;
20802;SDS011;10562;-33.856;151.182;2022-12-24T06:35:27;2.80;;;1.10;;
20802;SDS011;10562;-33.856;151.182;2022-12-24T06:37:59;2.70;;;1.10;;
20802;SDS011;10562;-33.856;151.182;2022-12-24T06:40:30;3.70;;;1.27;;
20802;SDS011;10562;-33.856;151.182;2022-12-24T06:43:00;3.75;;;1.35;;
20802;SDS011;10562;-33.856;151.182;2022-12-24T06:45:31;2.10;;;1.20;;
20802;SDS011;10562;-33.856;151.182;2022-12-24T06:48:02;1.50;;;1.10;;
20802;SDS011;10562;-33.856;151.182;2022-12-24T06:50:36;1.98;;;1.10;;
20802;SDS011;10562;-33.856;151.182;2022-12-24T06:53:09;1.83;;;0.90;;
20802;SDS011;10562;-33.856;151.182;2022-12-24T06:55:39;2.08;;;1.05;;
20802;SDS011;10562;-33.856;151.182;2022-12-24T06:58:10;2.55;;;1.00;;
20802;SDS011;10562;-33.856;151.182;2022-12-24T07:00:41;1.88;;;0.98;;
20802;SDS011;10562;-33.856;151.182;2022-12-24T07:03:12;1.27;;;0.90;;
20802;SDS011;10562;-33.856;151.182;2022-12-24T07:05:45;1.92;;;1.05;;
20802;SDS011;10562;-33.856;151.182;2022-12-24T07:08:15;2.20;;;0.98;;
20802;SDS011;10562;-33.856;151.182;2022-12-24T07:10:47;2.03;;;1.00;;
20802;SDS011;10562;-33.856;151.182;2022-12-24T07:13:18;4.35;;;1.00;;
20802;SDS011;10562;-33.856;151.182;2022-12-24T07:15:55;2.80;;;1.30;;
20802;SDS011;10562;-33.856;151.182;2022-12-24T07:18:26;3.80;;;1.20;;
20802;SDS011;10562;-33.856;151.182;2022-12-24T07:20:59;2.30;;;1.20;;
20802;SDS011;10562;-33.856;151.182;2022-12-24T07:23:31;2.95;;;1.30;;
20802;SDS011;10562;-33.856;151.182;2022-12-24T07:26:02;2.75;;;1.17;;
20802;SDS011;10562;-33.856;151.182;2022-12-24T07:28:34;3.60;;;1.40;;
20802;SDS011;10562;-33.856;151.182;2022-12-24T07:31:05;2.38;;;1.30;;
20802;SDS011;10562;-33.856;151.182;2022-12-24T07:33:35;1.73;;;1.33;;
20802;SDS011;10562;-33.856;151.182;2022-12-24T07:36:09;2.85;;;1.45;;
20802;SDS011;10562;-33.856;151.182;2022-12-24T07:38:46;2.80;;;1.70;;
20802;SDS011;10562;-33.856;151.182;2022-12-24T07:41:17;2.08;;;1.35;;
20802;SDS011;10562;-33.856;151.182;2022-12-24T07:43:48;2.90;;;1.40;;
20802;SDS011;10562;-33.856;151.182;2022-12-24T07:46:20;4.28;;;1.75;;
20802;SDS011;10562;-33.856;151.182;2022-12-24T07:48:51;3.33;;;1.88;;
20802;SDS011;10562;-33.856;151.182;2022-12-24T07:51:24;4.22;;;1.92;;
20802;SDS011;10562;-33.856;151.182;2022-12-24T07:53:55;5.63;;;2.60;;
20802;SDS011;10562;-33.856;151.182;2022-12-24T07:56:25;3.50;;;2.10;;
20802;SDS011;10562;-33.856;151.182;2022-12-24T07:58:56;6.50;;;2.40;;
20802;SDS011;10562;-33.856;151.182;2022-12-24T08:01:27;8.48;;;3.30;;
20802;SDS011;10562;-33.856;151.182;2022-12-24T08:03:58;5.07;;;2.63;;
20802;SDS011;10562;-33.856;151.182;2022-12-24T08:06:30;4.95;;;2.50;;
20802;SDS011;10562;-33.856;151.182;2022-12-24T08:09:01;4.72;;;2.50;;
20802;SDS011;10562;-33.856;151.182;2022-12-24T08:11:32;5.35;;;2.67;;
20802;SDS011;10562;-33.856;151.182;2022-12-24T08:14:03;6.63;;;2.53;;
20802;SDS011;10562;-33.856;151.182;2022-12-24T08:16:33;5.95;;;2.60;;
20802;SDS011;10562;-33.856;151.182;2022-12-24T08:19:04;7.18;;;2.97;;
20802;SDS011;10562;-33.856;151.182;2022-12-24T08:21:37;5.47;;;3.05;;
20802;SDS011;10562;-33.856;151.182;2022-12-24T08:24:08;8.15;;;3.38;;
20802;SDS011;10562;-33.856;151.182;2022-12-24T08:26:38;10.23;;;3.63;;
20802;SDS011;10562;-33.856;151.182;2022-12-24T08:29:09;7.22;;;3.05;;
20802;SDS011;10562;-33.856;151.182;2022-12-24T08:31:41;5.38;;;2.92;;
20802;SDS011;10562;-33.856;151.182;2022-12-24T08:34:11;9.68;;;2.80;;
20802;SDS011;10562;-33.856;151.182;2022-12-24T08:36:44;5.85;;;2.63;;
20802;SDS011;10562;-33.856;151.182;2022-12-24T08:39:15;4.50;;;2.97;;
20802;SDS011;10562;-33.856;151.182;2022-12-24T08:41:46;9.00;;;3.05;;
20802;SDS011;10562;-33.856;151.182;2022-12-24T08:44:17;4.00;;;2.60;;
20802;SDS011;10562;-33.856;151.182;2022-12-24T08:46:48;4.15;;;2.55;;
20802;SDS011;10562;-33.856;151.182;2022-12-24T08:49:19;7.63;;;2.90;;
20802;SDS011;10562;-33.856;151.182;2022-12-24T08:51:52;4.22;;;2.55;;
20802;SDS011;10562;-33.856;151.182;2022-12-24T08:54:23;6.13;;;2.40;;
20802;SDS011;10562;-33.856;151.182;2022-12-24T08:56:54;5.43;;;2.88;;
20802;SDS011;10562;-33.856;151.182;2022-12-24T08:59:24;7.13;;;2.50;;
20802;SDS011;10562;-33.856;151.182;2022-12-24T09:01:55;6.07;;;2.60;;
20802;SDS011;10562;-33.856;151.182;2022-12-24T09:04:26;4.45;;;2.80;;
20802;SDS011;10562;-33.856;151.182;2022-12-24T09:06:59;5.00;;;2.70;;
20802;SDS011;10562;-33.856;151.182;2022-12-24T09:09:30;9.45;;;2.40;;
20802;SDS011;10562;-33.856;151.182;2022-12-24T09:12:00;5.75;;;2.70;;
20802;SDS011;10562;-33.856;151.182;2022-12-24T09:14:33;9.35;;;3.05;;
20802;SDS011;10562;-33.856;151.182;2022-12-24T09:17:04;6.65;;;2.65;;
20802;SDS011;10562;-33.856;151.182;2022-12-24T09:19:35;4.63;;;2.60;;
20802;SDS011;10562;-33.856;151.182;2022-12-24T09:22:08;6.53;;;2.63;;
20802;SDS011;10562;-33.856;151.182;2022-12-24T09:24:38;5.55;;;2.75;;
20802;SDS011;10562;-33.856;151.182;2022-12-24T09:27:09;5.18;;;2.85;;
20802;SDS011;10562;-33.856;151.182;2022-12-24T09:29:40;5.20;;;2.58;;
20802;SDS011;10562;-33.856;151.182;2022-12-24T09:32:11;4.07;;;2.50;;
20802;SDS011;10562;-33.856;151.182;2022-12-24T09:34:41;4.20;;;2.90;;
20802;SDS011;10562;-33.856;151.182;2022-12-24T09:37:14;4.55;;;2.60;;
20802;SDS011;10562;-33.856;151.182;2022-12-24T09:39:45;6.70;;;2.80;;
20802;SDS011;10562;-33.856;151.182;2022-12-24T09:42:18;5.03;;;2.65;;
20802;SDS011;10562;-33.856;151.182;2022-12-24T09:44:57;5.03;;;2.80;;
20802;SDS011;10562;-33.856;151.182;2022-12-24T09:47:35;6.45;;;2.70;;
20802;SDS011;10562;-33.856;151.182;2022-12-24T09:50:16;4.28;;;2.63;;
20802;SDS011;10562;-33.856;151.182;2022-12-24T09:53:03;7.40;;;3.15;;
20802;SDS011;10562;-33.856;151.182;2022-12-24T09:55:43;4.50;;;2.72;;
20802;SDS011;10562;-33.856;151.182;2022-12-24T09:58:18;3.55;;;2.67;;
20802;SDS011;10562;-33.856;151.182;2022-12-24T10:00:52;6.40;;;2.90;;
20802;SDS011;10562;-33.856;151.182;2022-12-24T10:03:24;6.05;;;2.72;;
20802;SDS011;10562;-33.856;151.182;2022-12-24T10:05:58;7.93;;;2.95;;
20802;SDS011;10562;-33.856;151.182;2022-12-24T10:08:38;4.22;;;2.80;;
20802;SDS011;10562;-33.856;151.182;2022-12-24T10:11:21;5.60;;;2.90;;
20802;SDS011;10562;-33.856;151.182;2022-12-24T10:14:02;4.82;;;2.78;;
20802;SDS011;10562;-33.856;151.182;2022-12-24T10:16:42;6.35;;;2.90;;
20802;SDS011;10562;-33.856;151.182;2022-12-24T10:19:22;3.90;;;2.90;;
20802;SDS011;10562;-33.856;151.182;2022-12-24T10:22:03;5.68;;;2.92;;
20802;SDS011;10562;-33.856;151.182;2022-12-24T10:24:45;5.68;;;2.80;;
20802;SDS011;10562;-33.856;151.182;2022-12-24T10:27:23;5.13;;;3.03;;
20802;SDS011;10562;-33.856;151.182;2022-12-24T10:29:59;7.90;;;3.13;;
20802;SDS011;10562;-33.856;151.182;2022-12-24T10:32:34;5.28;;;3.03;;
20802;SDS011;10562;-33.856;151.182;2022-12-24T10:35:07;7.20;;;2.85;;
20802;SDS011;10562;-33.856;151.182;2022-12-24T10:37:47;5.55;;;3.10;;
20802;SDS011;10562;-33.856;151.182;2022-12-24T10:40:24;6.25;;;3.10;;
20802;SDS011;10562;-33.856;151.182;2022-12-24T10:42:59;5.72;;;3.40;;
20802;SDS011;10562;-33.856;151.182;2022-12-24T10:45:35;5.22;;;2.92;;
20802;SDS011;10562;-33.856;151.182;2022-12-24T10:48:10;6.57;;;3.30;;
20802;SDS011;10562;-33.856;151.182;2022-12-24T10:50:55;6.53;;;4.10;;
20802;SDS011;10562;-33.856;151.182;2022-12-24T10:53:32;6.28;;;3.50;;
20802;SDS011;10562;-33.856;151.182;2022-12-24T10:56:10;9.18;;;3.90;;
20802;SDS011;10562;-33.856;151.182;2022-12-24T10:58:43;6.70;;;3.67;;
20802;SDS011;10562;-33.856;151.182;2022-12-24T11:01:18;5.68;;;3.70;;
20802;SDS011;10562;-33.856;151.182;2022-12-24T11:04:14;7.35;;;3.40;;
20802;SDS011;10562;-33.856;151.182;2022-12-24T11:06:52;7.45;;;3.47;;
20802;SDS011;10562;-33.856;151.182;2022-12-24T11:09:24;6.45;;;3.45;;
20802;SDS011;10562;-33.856;151.182;2022-12-24T11:11:59;6.05;;;3.30;;
20802;SDS011;10562;-33.856;151.182;2022-12-24T11:14:32;7.20;;;3.58;;
20802;SDS011;10562;-33.856;151.182;2022-12-24T11:17:05;7.18;;;3.47;;
20802;SDS011;10562;-33.856;151.182;2022-12-24T11:19:46;5.80;;;3.40;;
20802;SDS011;10562;-33.856;151.182;2022-12-24T11:22:18;7.35;;;3.40;;
20802;SDS011;10562;-33.856;151.182;2022-12-24T11:25:00;5.57;;;3.10;;
20802;SDS011;10562;-33.856;151.182;2022-12-24T11:27:37;6.20;;;3.55;;
20802;SDS011;10562;-33.856;151.182;2022-12-24T11:33:17;7.05;;;3.40;;
20802;SDS011;10562;-33.856;151.182;2022-12-24T11:35:50;9.15;;;3.60;;
20802;SDS011;10562;-33.856;151.182;2022-12-24T11:38:30;6.97;;;3.50;;
20802;SDS011;10562;-33.856;151.182;2022-12-24T11:41:04;10.63;;;3.90;;
20802;SDS011;10562;-33.856;151.182;2022-12-24T11:43:41;6.78;;;3.75;;
20802;SDS011;10562;-33.856;151.182;2022-12-24T11:46:17;9.63;;;4.45;;
20802;SDS011;10562;-33.856;151.182;2022-12-24T11:48:49;8.88;;;4.47;;
20802;SDS011;10562;-33.856;151.182;2022-12-24T11:52:08;15.38;;;4.88;;
20802;SDS011;10562;-33.856;151.182;2022-12-24T11:54:51;9.93;;;4.03;;
20802;SDS011;10562;-33.856;151.182;2022-12-24T11:57:33;9.23;;;4.25;;
20802;SDS011;10562;-33.856;151.182;2022-12-24T12:00:13;9.85;;;4.00;;
20802;SDS011;10562;-33.856;151.182;2022-12-24T12:02:45;10.88;;;4.30;;
20802;SDS011;10562;-33.856;151.182;2022-12-24T12:05:19;14.68;;;4.43;;
20802;SDS011;10562;-33.856;151.182;2022-12-24T12:07:57;11.05;;;4.30;;
20802;SDS011;10562;-33.856;151.182;2022-12-24T12:10:36;9.68;;;4.43;;
20802;SDS011;10562;-33.856;151.182;2022-12-24T12:13:09;15.60;;;5.30;;
20802;SDS011;10562;-33.856;151.182;2022-12-24T12:15:45;8.60;;;5.20;;
20802;SDS011;10562;-33.856;151.182;2022-12-24T12:18:19;12.02;;;6.70;;
20802;SDS011;10562;-33.856;151.182;2022-12-24T12:20:53;12.50;;;6.63;;
20802;SDS011;10562;-33.856;151.182;2022-12-24T12:23:28;10.70;;;7.05;;
20802;SDS011;10562;-33.856;151.182;2022-12-24T12:26:03;10.25;;;7.57;;
20802;SDS011;10562;-33.856;151.182;2022-12-24T12:28:39;13.52;;;8.23;;
20802;SDS011;10562;-33.856;151.182;2022-12-24T12:31:15;10.05;;;8.20;;
20802;SDS011;10562;-33.856;151.182;2022-12-24T12:33:51;13.20;;;7.95;;
20802;SDS011;10562;-33.856;151.182;2022-12-24T12:36:25;13.15;;;8.63;;
20802;SDS011;10562;-33.856;151.182;2022-12-24T12:39:00;12.20;;;9.25;;
20802;SDS011;10562;-33.856;151.182;2022-12-24T12:41:34;16.25;;;14.63;;
20802;SDS011;10562;-33.856;151.182;2022-12-24T12:47:20;19.30;;;10.50;;
20802;SDS011;10562;-33.856;151.182;2022-12-24T12:50:05;19.77;;;11.75;;
20802;SDS011;10562;-33.856;151.182;2022-12-24T12:52:45;18.50;;;12.10;;
20802;SDS011;10562;-33.856;151.182;2022-12-24T12:55:31;24.55;;;12.10;;
20802;SDS011;10562;-33.856;151.182;2022-12-24T12:58:11;18.27;;;12.40;;
20802;SDS011;10562;-33.856;151.182;2022-12-24T13:00:44;23.92;;;14.07;;
20802;SDS011;10562;-33.856;151.182;2022-12-24T13:06:25;19.30;;;13.05;;
20802;SDS011;10562;-33.856;151.182;2022-12-24T13:09:10;20.63;;;13.55;;
20802;SDS011;10562;-33.856;151.182;2022-12-24T13:12:02;19.95;;;13.05;;
20802;SDS011;10562;-33.856;151.182;2022-12-24T13:14:50;23.60;;;12.57;;
20802;SDS011;10562;-33.856;151.182;2022-12-24T13:17:59;21.80;;;12.48;;
20802;SDS011;10562;-33.856;151.182;2022-12-24T13:20:59;21.73;;;13.35;;
20802;SDS011;10562;-33.856;151.182;2022-12-24T13:23:30;29.33;;;12.88;;
20802;SDS011;10562;-33.856;151.182;2022-12-24T13:26:01;27.92;;;15.02;;
20802;SDS011;10562;-33.856;151.182;2022-12-24T13:28:39;33.88;;;14.98;;
20802;SDS011;10562;-33.856;151.182;2022-12-24T13:31:24;27.23;;;14.43;;
20802;SDS011;10562;-33.856;151.182;2022-12-24T13:33:58;27.60;;;14.85;;
20802;SDS011;10562;-33.856;151.182;2022-12-24T13:42:49;32.83;;;14.52;;
20802;SDS011;10562;-33.856;151.182;2022-12-24T13:45:42;25.10;;;13.95;;
20802;SDS011;10562;-33.856;151.182;2022-12-24T13:48:21;24.58;;;13.80;;
20802;SDS011;10562;-33.856;151.182;2022-12-24T13:51:00;23.27;;;13.93;;
20802;SDS011;10562;-33.856;151.182;2022-12-24T13:53:46;26.65;;;13.90;;
20802;SDS011;10562;-33.856;151.182;2022-12-24T13:56:24;31.23;;;22.00;;
20802;SDS011;10562;-33.856;151.182;2022-12-24T13:59:09;26.23;;;14.00;;
20802;SDS011;10562;-33.856;151.182;2022-12-24T14:01:51;24.40;;;13.02;;
20802;SDS011;10562;-33.856;151.182;2022-12-24T14:04:23;30.13;;;12.25;;
20802;SDS011;10562;-33.856;151.182;2022-12-24T14:06:56;21.80;;;12.68;;
20802;SDS011;10562;-33.856;151.182;2022-12-24T14:09:29;25.50;;;12.02;;
20802;SDS011;10562;-33.856;151.182;2022-12-24T14:12:27;23.15;;;11.57;;
20802;SDS011;10562;-33.856;151.182;2022-12-24T14:18:36;23.48;;;10.68;;
20802;SDS011;10562;-33.856;151.182;2022-12-24T14:21:14;23.65;;;11.20;;
20802;SDS011;10562;-33.856;151.182;2022-12-24T14:23:52;23.02;;;11.05;;
20802;SDS011;10562;-33.856;151.182;2022-12-24T14:26:27;21.00;;;10.45;;
20802;SDS011;10562;-33.856;151.182;2022-12-24T14:29:04;25.27;;;10.10;;
20802;SDS011;10562;-33.856;151.182;2022-12-24T14:31:49;19.08;;;9.82;;
20802;SDS011;10562;-33.856;151.182;2022-12-24T14:34:20;29.08;;;12.48;;
20802;SDS011;10562;-33.856;151.182;2022-12-24T14:36:52;24.25;;;12.32;;
20802;SDS011;10562;-33.856;151.182;2022-12-24T14:39:24;18.08;;;9.27;;
20802;SDS011;10562;-33.856;151.182;2022-12-24T14:42:08;21.55;;;9.60;;
20802;SDS011;10562;-33.856;151.182;2022-12-24T14:45:02;24.02;;;9.55;;
20802;SDS011;10562;-33.856;151.182;2022-12-24T14:47:42;23.60;;;9.38;;
20802;SDS011;10562;-33.856;151.182;2022-12-24T14:50:23;21.05;;;9.43;;
20802;SDS011;10562;-33.856;151.182;2022-12-24T14:53:06;21.00;;;9.60;;
20802;SDS011;10562;-33.856;151.182;2022-12-24T14:55:48;22.25;;;9.13;;
20802;SDS011;10562;-33.856;151.182;2022-12-24T14:58:23;23.13;;;9.40;;
20802;SDS011;10562;-33.856;151.182;2022-12-24T15:00:58;22.88;;;9.00;;
20802;SDS011;10562;-33.856;151.182;2022-12-24T15:03:30;21.73;;;8.85;;
20802;SDS011;10562;-33.856;151.182;2022-12-24T15:06:01;27.92;;;9.52;;
20802;SDS011;10562;-33.856;151.182;2022-12-24T15:08:35;27.77;;;9.55;;